Pagrindinis puslapis
METAR-TAF:

METAR-TAF

Oro uostai :

Chabarovskas, Rusija

platuma: 48-31N, ilguma: 135-10E, Aukštis: 72 m

Dabartinis oras

Ataskaita buvo paskelbta 31 minutes, ne 03:30 UTC
Vėjas 12 kt iš Šiaurės/Šiaurės Rytų, svyruoja nuo Šiaurės ir Rytų/Šiaurės Rytų
Temperatūra 15°C
Drėgmė 51%
Slėgis 1007 hPa
Matomumas 10 km arba daugiau
Išsisklaidę debesys ne aukštis 4100 ft

METAR: UHHH 280330Z 02006MPS 350V060 9999 SCT041 15/05 Q1007 R88/090060 NOSIG RMK QFE749/0999

Laikas: 14:01 (04:01 UTC)

Prognozė

Ataskaita buvo paskelbta 2 valandos ir 10 minutes, ne 01:51 UTC
Prognozė galioja nuo 28 metu 03 UTC su 29 metu 09 UTC
Vėjas 10 kt iš Šiaurės Rytų
Matomumas 10 km arba daugiau
Išsisklaidę debesys ne aukštis 2500 ft
Laikinai
nuo 28 metu 03 UTC su 28 metu 18 UTC
Vėjas 10 kt iš Rytų/Šiaurės Rytų su gūsio iki 19 kt

TAF: UHHH 280151Z 2803/2909 04005MPS 9999 SCT025 TEMPO 2803/2818 07005G10MPS

Orai ataskaitas ir orų prognozės (METAR, TAF).

turimą stotys yra geltonos ir raudonos taškus žemėlapyje.

Perkelti pele per norėdami pamatyti stoties vardą.

Tada spustelėkite, norėdami matyti oro stebėjimo ir prognozės.

Norėdami pakeisti žemėlapį: spustelėkite ant žalios mygtukų su juodo kryžiaus žemyn,; žalią mygtuką su brūkšneliu, jei norite nutolinti; arba žalių rodyklių gretimoms žemėlapius.


METAR-TAF: